createdAt,value
2022-12-23T00:00:00.000Z,2.00
2022-12-23T00:00:11.054Z,2.90
2022-12-23T00:00:22.052Z,3.60
2022-12-23T00:00:32.839Z,2.90
2022-12-23T00:00:43.898Z,1.90
2022-12-23T00:00:54.898Z,2.60
2022-12-23T00:01:05.703Z,2.30
2022-12-23T00:01:16.746Z,2.80
2022-12-23T00:01:27.804Z,2.70
2022-12-23T00:01:38.645Z,3.80
2022-12-23T00:01:49.311Z,3.30
2022-12-23T00:01:59.949Z,2.60
2022-12-23T00:02:10.880Z,3.10
2022-12-23T00:02:21.643Z,2.60
2022-12-23T00:02:32.330Z,2.40
2022-12-23T00:02:43.465Z,1.90
2022-12-23T00:02:54.250Z,2.40
2022-12-23T00:03:04.932Z,2.60
2022-12-23T00:03:15.958Z,2.50
2022-12-23T00:03:26.742Z,2.20
2022-12-23T00:03:37.341Z,2.40
2022-12-23T00:03:48.247Z,2.30
2022-12-23T00:03:58.785Z,3.20
2022-12-23T00:04:09.835Z,2.70
2022-12-23T00:04:20.673Z,2.60
2022-12-23T00:04:31.323Z,2.00
2022-12-23T00:04:42.285Z,1.60
2022-12-23T00:04:53.089Z,2.40
2022-12-23T00:05:03.609Z,2.20
2022-12-23T00:05:14.600Z,2.50
2022-12-23T00:05:25.380Z,2.70
2022-12-23T00:05:38.121Z,3.20
2022-12-23T00:05:47.135Z,3.40
2022-12-23T00:05:57.931Z,3.40
2022-12-23T00:06:08.998Z,3.10
2022-12-23T00:06:19.969Z,3.20
2022-12-23T00:06:30.825Z,2.40
2022-12-23T00:06:41.854Z,2.80
2022-12-23T00:06:52.830Z,2.60
2022-12-23T00:07:03.643Z,2.30
2022-12-23T00:07:14.700Z,2.50
2022-12-23T00:07:25.703Z,1.90
2022-12-23T00:07:36.503Z,2.70
2022-12-23T00:07:47.573Z,2.70
2022-12-23T00:07:58.571Z,3.10
2022-12-23T00:08:09.397Z,2.80
2022-12-23T00:08:20.530Z,2.70
2022-12-23T00:08:31.543Z,2.20
2022-12-23T00:08:42.327Z,2.40
2022-12-23T00:08:53.408Z,3.00
2022-12-23T00:09:04.390Z,2.80
2022-12-23T00:09:15.191Z,2.50
2022-12-23T00:09:26.281Z,1.80
2022-12-23T00:09:37.278Z,2.00
2022-12-23T00:09:48.077Z,2.00
2022-12-23T00:09:59.153Z,3.30
2022-12-23T00:10:10.152Z,3.30
2022-12-23T00:10:20.951Z,3.20
2022-12-23T00:10:32.120Z,2.30
2022-12-23T00:10:42.597Z,2.90
2022-12-23T00:10:53.441Z,3.40
2022-12-23T00:11:03.927Z,3.60
2022-12-23T00:11:14.908Z,3.10
2022-12-23T00:11:25.749Z,2.90
2022-12-23T00:11:36.777Z,2.40
2022-12-23T00:11:47.750Z,2.10
2022-12-23T00:11:58.532Z,1.40
2022-12-23T00:12:09.621Z,1.60
2022-12-23T00:12:20.609Z,2.80
2022-12-23T00:12:31.396Z,2.30
2022-12-23T00:12:42.469Z,2.30
2022-12-23T00:12:53.448Z,1.70
2022-12-23T00:13:04.244Z,2.00
2022-12-23T00:13:15.312Z,2.60
2022-12-23T00:13:26.311Z,3.20
2022-12-23T00:13:37.144Z,3.10
2022-12-23T00:13:47.673Z,4.10
2022-12-23T00:13:58.660Z,2.80
2022-12-23T00:14:13.201Z,2.30
2022-12-23T00:14:22.205Z,2.30
2022-12-23T00:14:31.586Z,2.50
2022-12-23T00:14:42.372Z,1.80
2022-12-23T00:14:53.490Z,2.30
2022-12-23T00:15:04.435Z,2.10
2022-12-23T00:15:15.276Z,1.90
2022-12-23T00:15:26.382Z,1.90
2022-12-23T00:15:37.359Z,1.60
2022-12-23T00:15:48.206Z,2.00
2022-12-23T00:15:58.718Z,2.10
2022-12-23T00:16:09.761Z,2.00
2022-12-23T00:16:20.629Z,2.50
2022-12-23T00:16:31.206Z,2.50
2022-12-23T00:16:42.290Z,3.50
2022-12-23T00:16:53.121Z,3.20
2022-12-23T00:17:09.323Z,2.70
2022-12-23T00:17:22.707Z,2.10
2022-12-23T00:17:26.483Z,2.20
2022-12-23T00:17:36.458Z,2.50
2022-12-23T00:17:47.484Z,2.80
2022-12-23T00:17:58.291Z,2.90
2022-12-23T00:18:08.815Z,2.90
2022-12-23T00:18:19.769Z,1.70
2022-12-23T00:18:30.557Z,1.50
2022-12-23T00:18:41.670Z,1.80
2022-12-23T00:18:52.705Z,2.90
2022-12-23T00:19:03.491Z,3.20
2022-12-23T00:19:14.571Z,3.40
2022-12-23T00:19:25.549Z,3.10
2022-12-23T00:19:36.354Z,2.60
2022-12-23T00:19:47.402Z,3.40
2022-12-23T00:19:58.402Z,2.80
2022-12-23T00:20:09.177Z,2.70
2022-12-23T00:20:20.256Z,2.90
2022-12-23T00:20:31.267Z,3.60
2022-12-23T00:20:42.052Z,2.80
2022-12-23T00:20:53.123Z,2.00
2022-12-23T00:21:08.594Z,2.10
2022-12-23T00:21:15.080Z,2.50
2022-12-23T00:21:26.131Z,2.80
2022-12-23T00:21:37.130Z,3.40
2022-12-23T00:21:47.913Z,3.60
2022-12-23T00:21:59.019Z,3.60
2022-12-23T00:22:10.001Z,3.30
2022-12-23T00:22:20.774Z,2.30
2022-12-23T00:22:31.852Z,1.50
2022-12-23T00:22:42.844Z,1.90
2022-12-23T00:22:53.644Z,2.00
2022-12-23T00:23:04.705Z,1.80
2022-12-23T00:23:15.682Z,1.90
2022-12-23T00:23:26.465Z,1.80
2022-12-23T00:23:37.558Z,2.50
2022-12-23T00:23:48.527Z,3.30
2022-12-23T00:23:59.323Z,2.70
2022-12-23T00:24:10.401Z,2.50
2022-12-23T00:24:21.378Z,2.50
2022-12-23T00:24:32.159Z,2.60
2022-12-23T00:24:43.230Z,2.80
2022-12-23T00:24:54.219Z,2.20
2022-12-23T00:25:05.000Z,2.70
2022-12-23T00:25:16.079Z,3.40
2022-12-23T00:25:27.053Z,3.30
2022-12-23T00:25:37.843Z,3.90
2022-12-23T00:25:48.905Z,2.90
2022-12-23T00:25:59.886Z,2.80
2022-12-23T00:26:10.680Z,2.10
2022-12-23T00:26:21.747Z,3.10
2022-12-23T00:26:32.736Z,2.70
2022-12-23T00:26:43.530Z,3.40
2022-12-23T00:26:54.057Z,3.00
2022-12-23T00:27:05.061Z,3.30
2022-12-23T00:27:15.851Z,2.60
2022-12-23T00:27:26.925Z,2.20
2022-12-23T00:27:38.008Z,3.20
2022-12-23T00:27:48.737Z,3.30
2022-12-23T00:27:59.794Z,4.10
2022-12-23T00:28:10.789Z,3.10
2022-12-23T00:28:21.567Z,3.30
2022-12-23T00:28:32.646Z,3.10
2022-12-23T00:28:43.629Z,4.00
2022-12-23T00:28:54.453Z,3.10
2022-12-23T00:29:04.964Z,2.20
2022-12-23T00:29:15.968Z,1.90
2022-12-23T00:29:26.756Z,1.90
2022-12-23T00:29:37.840Z,1.30
2022-12-23T00:29:48.822Z,1.40
2022-12-23T00:29:59.593Z,2.90
2022-12-23T00:30:10.717Z,3.20
2022-12-23T00:30:21.696Z,2.30
2022-12-23T00:30:32.497Z,2.90
2022-12-23T00:30:43.566Z,2.70
2022-12-23T00:30:54.569Z,3.90
2022-12-23T00:31:05.405Z,3.70
2022-12-23T00:31:15.924Z,4.60
2022-12-23T00:31:26.948Z,4.30
2022-12-23T00:31:37.776Z,4.00
2022-12-23T00:31:48.282Z,3.00
2022-12-23T00:31:59.304Z,3.00
2022-12-23T00:32:10.160Z,2.20
2022-12-23T00:32:20.695Z,2.60
2022-12-23T00:32:31.704Z,2.50
2022-12-23T00:32:42.475Z,2.40
2022-12-23T00:32:53.555Z,1.80
2022-12-23T00:33:04.547Z,1.80
2022-12-23T00:33:15.312Z,2.10
2022-12-23T00:33:26.413Z,2.40
2022-12-23T00:33:37.406Z,2.00
2022-12-23T00:33:48.182Z,3.30
2022-12-23T00:33:59.278Z,3.70
2022-12-23T00:34:10.272Z,4.70
2022-12-23T00:34:21.047Z,3.80
2022-12-23T00:34:32.128Z,2.20
2022-12-23T00:34:43.116Z,2.20
2022-12-23T00:34:53.935Z,2.90
2022-12-23T00:35:04.989Z,4.30
2022-12-23T00:35:16.012Z,3.70
2022-12-23T00:35:26.795Z,4.20
2022-12-23T00:35:37.302Z,4.90
2022-12-23T00:35:48.337Z,5.40
2022-12-23T00:35:59.200Z,3.30
2022-12-23T00:36:09.745Z,2.60
2022-12-23T00:36:20.844Z,2.20
2022-12-23T00:36:31.697Z,1.80
2022-12-23T00:36:42.378Z,2.80
2022-12-23T00:36:53.339Z,3.00
2022-12-23T00:37:04.140Z,4.00
2022-12-23T00:37:15.208Z,3.70
2022-12-23T00:37:26.185Z,3.50
2022-12-23T00:37:36.973Z,3.60
2022-12-23T00:37:48.046Z,3.80
2022-12-23T00:37:59.051Z,3.70
2022-12-23T00:38:09.832Z,3.20
2022-12-23T00:38:20.346Z,2.40
2022-12-23T00:38:31.341Z,1.70
2022-12-23T00:38:42.127Z,2.70
2022-12-23T00:38:53.240Z,4.00
2022-12-23T00:39:04.287Z,4.00
2022-12-23T00:39:15.085Z,3.50
2022-12-23T00:39:26.127Z,3.70
2022-12-23T00:39:37.113Z,4.20
2022-12-23T00:39:52.097Z,4.20
2022-12-23T00:40:06.293Z,2.70
2022-12-23T00:40:10.940Z,3.10
2022-12-23T00:40:20.538Z,2.50
2022-12-23T00:40:31.609Z,2.10
2022-12-23T00:40:42.628Z,2.00
2022-12-23T00:40:53.410Z,2.00
2022-12-23T00:41:04.488Z,1.90
2022-12-23T00:41:15.471Z,2.10
2022-12-23T00:41:26.255Z,2.30
2022-12-23T00:41:37.367Z,2.40
2022-12-23T00:41:48.339Z,3.00
2022-12-23T00:41:59.130Z,2.80
2022-12-23T00:42:10.192Z,2.90
2022-12-23T00:42:21.198Z,2.80
2022-12-23T00:42:31.969Z,3.60
2022-12-23T00:42:43.047Z,3.70
2022-12-23T00:42:54.032Z,3.00
2022-12-23T00:43:04.804Z,2.90
2022-12-23T00:43:15.885Z,2.70
2022-12-23T00:43:26.894Z,3.50
2022-12-23T00:43:37.690Z,3.70
2022-12-23T00:43:48.224Z,3.00
2022-12-23T00:43:59.224Z,2.20
2022-12-23T00:44:10.034Z,2.50
2022-12-23T00:44:20.549Z,2.00
2022-12-23T00:44:31.563Z,2.30
2022-12-23T00:44:42.334Z,2.10
2022-12-23T00:44:53.408Z,1.50
2022-12-23T00:45:04.395Z,1.50
2022-12-23T00:45:15.203Z,1.50
2022-12-23T00:45:26.321Z,2.50
2022-12-23T00:45:37.392Z,1.80
2022-12-23T00:45:48.198Z,1.80
2022-12-23T00:45:58.758Z,1.70
2022-12-23T00:46:09.760Z,2.40
2022-12-23T00:46:20.606Z,2.50
2022-12-23T00:46:31.255Z,1.80
2022-12-23T00:46:41.705Z,2.50
2022-12-23T00:46:52.493Z,2.50
2022-12-23T00:47:03.589Z,3.40
2022-12-23T00:47:14.556Z,3.30
2022-12-23T00:47:25.351Z,3.20
2022-12-23T00:47:36.420Z,2.30
2022-12-23T00:47:47.416Z,2.00
2022-12-23T00:47:58.217Z,2.10
2022-12-23T00:48:09.265Z,2.10
2022-12-23T00:48:20.258Z,2.60
2022-12-23T00:48:31.046Z,2.80
2022-12-23T00:48:42.117Z,2.60
2022-12-23T00:48:53.164Z,1.80
2022-12-23T00:49:03.913Z,2.30
2022-12-23T00:49:15.012Z,2.00
2022-12-23T00:49:26.095Z,3.00
2022-12-23T00:49:36.910Z,2.80
2022-12-23T00:49:47.959Z,2.80
2022-12-23T00:49:58.989Z,1.60
2022-12-23T00:50:09.758Z,1.80
2022-12-23T00:50:20.809Z,2.60
2022-12-23T00:50:31.818Z,2.80
2022-12-23T00:50:42.587Z,3.30
2022-12-23T00:50:53.655Z,2.50
2022-12-23T00:51:04.642Z,2.30
2022-12-23T00:51:15.436Z,2.50
2022-12-23T00:51:26.498Z,2.60
2022-12-23T00:51:37.491Z,2.50
2022-12-23T00:51:48.281Z,2.70
2022-12-23T00:51:59.379Z,2.20
2022-12-23T00:52:10.389Z,2.00
2022-12-23T00:52:21.167Z,1.90
2022-12-23T00:52:31.696Z,2.70
2022-12-23T00:52:42.687Z,2.70
2022-12-23T00:52:53.490Z,2.40
2022-12-23T00:53:04.550Z,2.10
2022-12-23T00:53:15.536Z,2.40
2022-12-23T00:53:26.326Z,3.00
2022-12-23T00:53:37.393Z,2.70
2022-12-23T00:53:48.392Z,3.20
2022-12-23T00:53:59.192Z,2.50
2022-12-23T00:54:09.729Z,3.40
2022-12-23T00:54:20.746Z,4.40
2022-12-23T00:54:31.558Z,5.40
2022-12-23T00:54:42.628Z,3.70
2022-12-23T00:54:53.586Z,2.60
2022-12-23T00:55:04.377Z,2.20
2022-12-23T00:55:15.445Z,1.90
2022-12-23T00:55:26.442Z,1.70
2022-12-23T00:55:37.222Z,1.80
2022-12-23T00:55:48.296Z,1.70
2022-12-23T00:55:59.324Z,1.70
2022-12-23T00:56:10.105Z,1.50
2022-12-23T00:56:21.170Z,1.50
2022-12-23T00:56:32.196Z,1.30
2022-12-23T00:56:42.963Z,1.50
2022-12-23T00:56:54.042Z,2.50
2022-12-23T00:57:05.073Z,2.80
2022-12-23T00:57:15.833Z,2.70
2022-12-23T00:57:26.905Z,3.20
2022-12-23T00:57:37.891Z,2.90
2022-12-23T00:57:48.681Z,2.00
2022-12-23T00:57:59.745Z,2.00
2022-12-23T00:58:10.731Z,2.60
2022-12-23T00:58:21.522Z,3.20
2022-12-23T00:58:32.610Z,2.90
2022-12-23T00:58:43.589Z,2.00
2022-12-23T00:58:54.365Z,2.40
2022-12-23T00:59:05.440Z,3.10
2022-12-23T00:59:16.434Z,3.10
2022-12-23T00:59:27.374Z,2.50
2022-12-23T00:59:37.917Z,2.80
2022-12-23T00:59:48.915Z,2.90
2022-12-23T00:59:59.709Z,3.10
2022-12-23T01:00:10.784Z,2.90
2022-12-23T01:00:21.750Z,3.90
2022-12-23T01:00:32.540Z,4.10
2022-12-23T01:00:43.749Z,4.40
2022-12-23T01:00:54.329Z,3.30
2022-12-23T01:01:05.193Z,2.80
2022-12-23T01:01:16.263Z,2.60
2022-12-23T01:01:27.352Z,3.20
2022-12-23T01:01:38.321Z,2.30
2022-12-23T01:01:49.046Z,2.20
2022-12-23T01:01:59.784Z,3.20
2022-12-23T01:02:10.873Z,3.40
2022-12-23T01:02:21.596Z,3.70
2022-12-23T01:02:32.210Z,3.00
2022-12-23T01:02:43.193Z,3.40
2022-12-23T01:02:53.944Z,3.00
2022-12-23T01:03:04.637Z,1.40
2022-12-23T01:03:15.679Z,2.00
2022-12-23T01:03:26.293Z,2.40
2022-12-23T01:03:37.326Z,2.60
2022-12-23T01:03:48.102Z,3.20
2022-12-23T01:03:59.200Z,3.40
2022-12-23T01:04:10.176Z,2.20
2022-12-23T01:04:20.953Z,1.60
2022-12-23T01:04:32.092Z,1.70
2022-12-23T01:04:43.089Z,1.80
2022-12-23T01:04:53.861Z,1.50
2022-12-23T01:05:04.973Z,2.60
2022-12-23T01:05:15.957Z,3.10
2022-12-23T01:05:26.751Z,3.50
2022-12-23T01:05:37.831Z,2.80
2022-12-23T01:05:48.857Z,2.30
2022-12-23T01:05:59.631Z,2.40
2022-12-23T01:06:10.688Z,1.70
2022-12-23T01:06:21.675Z,2.30
2022-12-23T01:06:32.481Z,2.60
2022-12-23T01:06:43.007Z,2.70
2022-12-23T01:06:53.994Z,2.20
2022-12-23T01:07:04.797Z,2.20
2022-12-23T01:07:15.867Z,2.00
2022-12-23T01:07:26.884Z,2.10
2022-12-23T01:07:37.664Z,3.00
2022-12-23T01:07:48.753Z,3.20
2022-12-23T01:07:59.745Z,3.70
2022-12-23T01:08:10.548Z,2.80
2022-12-23T01:08:21.606Z,2.50
2022-12-23T01:08:32.586Z,2.80
2022-12-23T01:08:43.422Z,2.50
2022-12-23T01:08:54.462Z,2.60
2022-12-23T01:09:05.441Z,1.90
2022-12-23T01:09:16.246Z,2.30
2022-12-23T01:09:27.315Z,1.80
2022-12-23T01:09:38.332Z,1.50
2022-12-23T01:09:49.119Z,1.60
2022-12-23T01:10:00.190Z,2.40
2022-12-23T01:10:11.198Z,2.80
2022-12-23T01:10:21.986Z,2.00
2022-12-23T01:10:33.047Z,2.80
2022-12-23T01:10:44.060Z,2.10
2022-12-23T01:10:54.857Z,1.60
2022-12-23T01:11:05.904Z,1.60
2022-12-23T01:11:16.897Z,1.50
2022-12-23T01:11:27.663Z,1.90
2022-12-23T01:11:38.739Z,1.70
2022-12-23T01:11:49.737Z,2.50
2022-12-23T01:12:00.507Z,3.00
2022-12-23T01:12:11.593Z,3.60
2022-12-23T01:12:22.596Z,3.30
2022-12-23T01:12:33.365Z,3.80
2022-12-23T01:12:44.449Z,3.70
2022-12-23T01:12:55.418Z,2.70
2022-12-23T01:13:06.236Z,2.10
2022-12-23T01:13:16.789Z,1.80
2022-12-23T01:13:27.808Z,2.30
2022-12-23T01:13:38.586Z,2.80
2022-12-23T01:13:49.652Z,3.30
2022-12-23T01:14:00.641Z,3.30
2022-12-23T01:14:11.419Z,4.00
2022-12-23T01:14:22.502Z,4.00
2022-12-23T01:14:33.483Z,4.30
2022-12-23T01:14:44.312Z,2.90
2022-12-23T01:14:54.841Z,2.90
2022-12-23T01:15:05.909Z,2.40
2022-12-23T01:15:16.644Z,2.80
2022-12-23T01:15:27.703Z,2.30
2022-12-23T01:15:38.723Z,2.20
2022-12-23T01:15:49.505Z,1.80
2022-12-23T01:16:00.562Z,3.80
2022-12-23T01:16:16.758Z,4.60
2022-12-23T01:16:23.673Z,4.20
2022-12-23T01:16:33.630Z,3.40
2022-12-23T01:16:44.695Z,3.10
2022-12-23T01:16:55.564Z,3.20
2022-12-23T01:17:06.189Z,2.50
2022-12-23T01:17:17.331Z,2.60
2022-12-23T01:17:28.108Z,2.00
2022-12-23T01:17:39.198Z,2.50
2022-12-23T01:17:50.221Z,2.60
2022-12-23T01:18:01.045Z,3.00
2022-12-23T01:18:12.100Z,3.10
2022-12-23T01:18:23.062Z,3.00
2022-12-23T01:18:33.905Z,2.30
2022-12-23T01:18:44.967Z,2.90
2022-12-23T01:18:55.925Z,2.70
2022-12-23T01:19:06.688Z,2.10
2022-12-23T01:19:17.825Z,2.30
2022-12-23T01:19:28.793Z,2.10
2022-12-23T01:19:39.593Z,2.90
2022-12-23T01:19:50.678Z,2.30
2022-12-23T01:20:01.710Z,2.60
2022-12-23T01:20:12.465Z,1.70
2022-12-23T01:20:23.553Z,2.00
2022-12-23T01:20:34.538Z,1.70
2022-12-23T01:20:45.325Z,2.60
2022-12-23T01:20:56.386Z,2.60
2022-12-23T01:21:07.399Z,2.20
2022-12-23T01:21:18.166Z,2.70
2022-12-23T01:21:29.269Z,2.60
2022-12-23T01:21:40.270Z,3.30
2022-12-23T01:21:51.075Z,3.60
2022-12-23T01:22:02.111Z,2.90
2022-12-23T01:22:13.109Z,3.70
2022-12-23T01:22:23.903Z,3.40
2022-12-23T01:22:34.960Z,4.60
2022-12-23T01:22:45.951Z,4.30
2022-12-23T01:22:56.743Z,4.40
2022-12-23T01:23:07.821Z,2.40
2022-12-23T01:23:18.808Z,2.10
2022-12-23T01:23:29.600Z,2.20
2022-12-23T01:23:40.678Z,2.30
2022-12-23T01:23:51.663Z,2.10
2022-12-23T01:24:02.459Z,2.20
2022-12-23T01:24:13.552Z,2.20
2022-12-23T01:24:24.607Z,2.30
2022-12-23T01:24:35.371Z,2.90
2022-12-23T01:24:46.432Z,2.60
2022-12-23T01:24:57.470Z,3.30
2022-12-23T01:25:08.235Z,2.90
2022-12-23T01:25:19.320Z,2.50
2022-12-23T01:25:30.307Z,1.70
2022-12-23T01:25:41.096Z,1.60
2022-12-23T01:25:51.639Z,2.10
2022-12-23T01:26:02.619Z,2.40
2022-12-23T01:26:13.419Z,1.90
2022-12-23T01:26:24.478Z,2.10
2022-12-23T01:26:35.474Z,1.90
2022-12-23T01:26:46.246Z,1.80
2022-12-23T01:26:57.362Z,2.50
2022-12-23T01:27:08.358Z,2.30
2022-12-23T01:27:19.185Z,2.70
2022-12-23T01:27:29.750Z,2.20
2022-12-23T01:27:40.731Z,2.30
2022-12-23T01:27:51.575Z,3.10
2022-12-23T01:28:02.109Z,3.50
2022-12-23T01:28:13.082Z,2.50
2022-12-23T01:28:23.882Z,2.30
2022-12-23T01:28:34.962Z,2.00
2022-12-23T01:28:45.996Z,1.90
2022-12-23T01:28:56.768Z,2.20
2022-12-23T01:29:07.902Z,2.50
2022-12-23T01:29:18.843Z,2.90
2022-12-23T01:29:29.634Z,2.90
2022-12-23T01:29:40.705Z,3.00
2022-12-23T01:29:51.735Z,3.00
2022-12-23T01:30:02.669Z,3.00
2022-12-23T01:30:13.176Z,2.60
2022-12-23T01:30:24.163Z,2.40
2022-12-23T01:30:34.942Z,2.60
2022-12-23T01:30:46.011Z,3.00
2022-12-23T01:30:57.034Z,2.20
2022-12-23T01:31:07.859Z,2.10
2022-12-23T01:31:18.920Z,2.60
2022-12-23T01:31:30.119Z,2.50
2022-12-23T01:31:40.967Z,1.90
2022-12-23T01:31:51.605Z,1.70
2022-12-23T01:32:02.204Z,2.80
2022-12-23T01:32:13.118Z,3.00
2022-12-23T01:32:23.665Z,2.90
2022-12-23T01:32:34.653Z,2.60
2022-12-23T01:32:45.444Z,2.70
2022-12-23T01:32:56.499Z,2.90
2022-12-23T01:33:07.487Z,3.10
2022-12-23T01:33:18.309Z,2.50
2022-12-23T01:33:29.372Z,2.50
2022-12-23T01:33:40.350Z,2.40
2022-12-23T01:33:51.133Z,2.00
2022-12-23T01:34:02.204Z,2.10
2022-12-23T01:34:13.180Z,1.90
2022-12-23T01:34:23.991Z,2.50
2022-12-23T01:34:37.544Z,1.80
2022-12-23T01:34:46.080Z,2.10
2022-12-23T01:34:56.855Z,1.80
2022-12-23T01:35:08.107Z,2.90
2022-12-23T01:35:18.544Z,2.30
2022-12-23T01:35:29.322Z,2.80
2022-12-23T01:35:40.378Z,2.10
2022-12-23T01:35:51.390Z,2.60
2022-12-23T01:36:02.156Z,2.10
2022-12-23T01:36:13.268Z,1.60
2022-12-23T01:36:24.265Z,1.70
2022-12-23T01:36:35.077Z,1.80
2022-12-23T01:36:46.181Z,2.10
2022-12-23T01:36:57.156Z,1.80
2022-12-23T01:37:07.981Z,1.80
2022-12-23T01:37:19.032Z,2.10
2022-12-23T01:37:30.036Z,2.30
2022-12-23T01:37:40.815Z,2.30
2022-12-23T01:37:51.896Z,3.00
2022-12-23T01:38:02.916Z,4.30
2022-12-23T01:38:13.698Z,4.30
2022-12-23T01:38:24.797Z,3.50
2022-12-23T01:38:35.761Z,2.60
2022-12-23T01:38:46.548Z,1.80
2022-12-23T01:38:57.667Z,1.80
2022-12-23T01:39:08.630Z,2.20
2022-12-23T01:39:19.454Z,2.10
2022-12-23T01:39:30.520Z,2.00
2022-12-23T01:39:41.477Z,2.00
2022-12-23T01:39:52.262Z,2.50
2022-12-23T01:40:03.334Z,2.00
2022-12-23T01:40:14.421Z,2.80
2022-12-23T01:40:25.168Z,2.20
2022-12-23T01:40:36.235Z,1.80
2022-12-23T01:40:47.226Z,3.10
2022-12-23T01:40:58.018Z,3.60
2022-12-23T01:41:09.092Z,3.10
2022-12-23T01:41:20.094Z,2.60
2022-12-23T01:41:30.876Z,2.50
2022-12-23T01:41:41.953Z,2.00
2022-12-23T01:41:52.945Z,1.40
2022-12-23T01:42:03.742Z,2.20
2022-12-23T01:42:14.801Z,3.20
2022-12-23T01:42:25.811Z,2.50
2022-12-23T01:42:36.634Z,2.50
2022-12-23T01:42:47.778Z,1.90
2022-12-23T01:42:58.707Z,2.20
2022-12-23T01:43:09.495Z,2.70
2022-12-23T01:43:20.593Z,2.90
2022-12-23T01:43:31.592Z,3.80
2022-12-23T01:43:42.366Z,2.80
2022-12-23T01:43:53.434Z,2.70
2022-12-23T01:44:04.447Z,2.00
2022-12-23T01:44:15.227Z,2.10
2022-12-23T01:44:26.310Z,1.90
2022-12-23T01:44:37.303Z,2.10
2022-12-23T01:44:48.083Z,2.20
2022-12-23T01:44:59.205Z,2.40
2022-12-23T01:45:10.171Z,2.40
2022-12-23T01:45:21.012Z,2.00
2022-12-23T01:45:31.597Z,1.80
2022-12-23T01:45:42.686Z,1.70
2022-12-23T01:45:53.462Z,2.40
2022-12-23T01:46:04.652Z,2.70
2022-12-23T01:46:15.168Z,3.80
2022-12-23T01:46:25.973Z,3.50
2022-12-23T01:46:36.460Z,3.30
2022-12-23T01:46:47.496Z,2.00
2022-12-23T01:46:58.253Z,2.70
2022-12-23T01:47:09.314Z,2.80
2022-12-23T01:47:20.332Z,3.40
2022-12-23T01:47:31.135Z,2.20
2022-12-23T01:47:41.654Z,1.90
2022-12-23T01:47:52.673Z,1.00
2022-12-23T01:48:03.441Z,1.20
2022-12-23T01:48:14.551Z,1.90
2022-12-23T01:48:25.544Z,2.60
2022-12-23T01:48:36.309Z,2.80
2022-12-23T01:48:47.375Z,3.90
2022-12-23T01:48:58.380Z,4.20
2022-12-23T01:49:09.183Z,2.90
2022-12-23T01:49:19.723Z,3.50
2022-12-23T01:49:30.716Z,3.50
2022-12-23T01:49:41.533Z,3.20
2022-12-23T01:49:52.621Z,3.10
2022-12-23T01:50:03.591Z,2.50
2022-12-23T01:50:14.508Z,2.00
2022-12-23T01:50:25.073Z,1.30
2022-12-23T01:50:35.524Z,1.60
2022-12-23T01:50:46.302Z,1.90
2022-12-23T01:50:57.399Z,2.00
2022-12-23T01:51:08.381Z,2.40
2022-12-23T01:51:19.181Z,2.70
2022-12-23T01:51:30.245Z,2.80
2022-12-23T01:51:41.240Z,2.20
2022-12-23T01:51:52.038Z,1.40
2022-12-23T01:52:03.098Z,2.30
2022-12-23T01:52:14.120Z,2.40
2022-12-23T01:52:24.901Z,3.50
2022-12-23T01:52:35.965Z,3.30
2022-12-23T01:52:47.000Z,3.20
2022-12-23T01:53:01.717Z,1.80
2022-12-23T01:53:09.846Z,1.70
2022-12-23T01:53:19.781Z,2.10
2022-12-23T01:53:30.549Z,2.20
2022-12-23T01:53:41.612Z,2.80
2022-12-23T01:53:52.605Z,2.10
2022-12-23T01:54:03.380Z,3.10
2022-12-23T01:54:14.491Z,2.20
2022-12-23T01:54:25.514Z,2.70
2022-12-23T01:54:36.310Z,1.80
2022-12-23T01:54:47.412Z,1.70
2022-12-23T01:54:58.390Z,2.00
2022-12-23T01:55:09.177Z,3.80
2022-12-23T01:55:20.257Z,3.50
2022-12-23T01:55:31.269Z,3.60
2022-12-23T01:55:42.103Z,2.80
2022-12-23T01:55:53.139Z,2.80
2022-12-23T01:56:04.125Z,1.90
2022-12-23T01:56:14.910Z,2.20
2022-12-23T01:56:25.988Z,2.40
2022-12-23T01:56:36.996Z,1.30
2022-12-23T01:56:47.807Z,1.50
2022-12-23T01:56:58.869Z,1.60
2022-12-23T01:57:09.857Z,1.80
2022-12-23T01:57:20.649Z,1.60
2022-12-23T01:57:31.700Z,2.70
2022-12-23T01:57:42.696Z,2.60
2022-12-23T01:57:53.517Z,2.60
2022-12-23T01:58:04.041Z,2.40
2022-12-23T01:58:15.042Z,1.60
2022-12-23T01:58:25.837Z,1.60
2022-12-23T01:58:36.913Z,1.80
2022-12-23T01:58:47.916Z,2.10
2022-12-23T01:58:58.704Z,2.90
2022-12-23T01:59:09.777Z,2.50
2022-12-23T01:59:20.845Z,1.20
2022-12-23T01:59:31.603Z,2.30
2022-12-23T01:59:42.679Z,2.10
2022-12-23T01:59:53.678Z,2.00
2022-12-23T02:00:04.469Z,2.70
2022-12-23T02:00:15.538Z,3.40
2022-12-23T02:00:26.561Z,2.40
2022-12-23T02:00:37.337Z,2.40
2022-12-23T02:00:47.870Z,1.80
2022-12-23T02:00:58.947Z,2.10
2022-12-23T02:01:09.806Z,1.40
2022-12-23T02:01:20.362Z,1.70
2022-12-23T02:01:31.598Z,2.20
2022-12-23T02:01:42.661Z,2.70
2022-12-23T02:01:53.309Z,2.90
2022-12-23T02:02:04.444Z,1.80
2022-12-23T02:02:15.432Z,1.70
2022-12-23T02:02:26.185Z,1.80
2022-12-23T02:02:36.726Z,3.10
2022-12-23T02:02:47.692Z,3.40
2022-12-23T02:02:58.286Z,3.80
2022-12-23T02:03:08.889Z,2.70
2022-12-23T02:03:19.770Z,1.70
2022-12-23T02:03:30.370Z,2.10
2022-12-23T02:03:41.347Z,2.20
2022-12-23T02:03:52.101Z,1.70
2022-12-23T02:04:03.178Z,1.60
2022-12-23T02:04:14.185Z,1.80
2022-12-23T02:04:25.012Z,2.10
2022-12-23T02:04:36.056Z,1.90
2022-12-23T02:04:47.059Z,1.80
2022-12-23T02:04:57.844Z,1.10
2022-12-23T02:05:08.906Z,1.90
2022-12-23T02:05:19.937Z,3.00
2022-12-23T02:05:30.692Z,3.00
2022-12-23T02:05:41.809Z,2.70
2022-12-23T02:05:52.788Z,2.60
2022-12-23T02:06:03.575Z,2.80
2022-12-23T02:06:14.643Z,2.50
2022-12-23T02:06:25.636Z,1.60
2022-12-23T02:06:36.419Z,2.00
2022-12-23T02:06:47.512Z,2.70
2022-12-23T02:06:58.497Z,2.30
2022-12-23T02:07:09.316Z,2.40
2022-12-23T02:07:19.863Z,2.60
2022-12-23T02:07:30.851Z,3.00
2022-12-23T02:07:41.657Z,2.50
2022-12-23T02:07:52.712Z,1.50
2022-12-23T02:08:03.697Z,1.30
2022-12-23T02:08:14.494Z,1.30
2022-12-23T02:08:25.606Z,1.90
2022-12-23T02:08:36.550Z,2.20
2022-12-23T02:08:47.340Z,2.60
2022-12-23T02:08:58.501Z,1.70
2022-12-23T02:09:09.449Z,1.40
2022-12-23T02:09:20.263Z,1.70
2022-12-23T02:09:31.343Z,2.50
2022-12-23T02:09:42.309Z,2.50
2022-12-23T02:09:53.093Z,1.70
2022-12-23T02:10:04.167Z,1.80
2022-12-23T02:10:15.172Z,2.50
2022-12-23T02:10:25.980Z,3.60
2022-12-23T02:10:37.036Z,3.70
2022-12-23T02:10:48.074Z,2.80
2022-12-23T02:10:58.851Z,1.90
2022-12-23T02:11:09.945Z,1.80
2022-12-23T02:11:20.922Z,1.60
2022-12-23T02:11:31.747Z,1.60
2022-12-23T02:11:42.789Z,1.70
2022-12-23T02:11:53.767Z,1.80
2022-12-23T02:12:04.564Z,1.60
2022-12-23T02:12:15.622Z,1.70
2022-12-23T02:12:26.629Z,2.40
2022-12-23T02:12:37.394Z,2.80
2022-12-23T02:12:48.481Z,2.50
2022-12-23T02:12:59.455Z,2.70
2022-12-23T02:13:10.305Z,3.00
2022-12-23T02:13:21.341Z,3.50
2022-12-23T02:13:32.315Z,2.10
2022-12-23T02:13:43.099Z,1.60
2022-12-23T02:13:54.224Z,1.10
2022-12-23T02:14:05.185Z,1.30
2022-12-23T02:14:15.966Z,1.40
2022-12-23T02:14:27.069Z,1.50
2022-12-23T02:14:38.018Z,1.50
2022-12-23T02:14:48.842Z,1.50
2022-12-23T02:14:59.884Z,1.60
2022-12-23T02:15:10.906Z,1.70
2022-12-23T02:15:21.679Z,1.50
2022-12-23T02:15:32.742Z,1.70
2022-12-23T02:15:43.744Z,1.50
2022-12-23T02:15:54.546Z,1.00
2022-12-23T02:16:05.063Z,1.10
2022-12-23T02:16:16.066Z,1.60
2022-12-23T02:16:26.874Z,2.80
2022-12-23T02:16:37.979Z,2.40
2022-12-23T02:16:48.952Z,2.50
2022-12-23T02:16:59.821Z,2.40
2022-12-23T02:17:10.455Z,2.50
2022-12-23T02:17:20.960Z,1.40
2022-12-23T02:17:31.753Z,1.80
2022-12-23T02:17:42.811Z,1.60
2022-12-23T02:17:53.823Z,1.30
2022-12-23T02:18:04.660Z,1.10
2022-12-23T02:18:15.159Z,1.10
2022-12-23T02:18:26.147Z,0.70
2022-12-23T02:18:36.966Z,1.00
2022-12-23T02:18:48.016Z,1.00
2022-12-23T02:18:59.028Z,1.30
2022-12-23T02:19:09.816Z,2.30
2022-12-23T02:19:20.879Z,2.50
2022-12-23T02:19:31.929Z,2.30
2022-12-23T02:19:42.680Z,1.50
2022-12-23T02:19:53.743Z,1.50
2022-12-23T02:20:04.768Z,1.90
2022-12-23T02:20:15.602Z,1.80
2022-12-23T02:20:26.665Z,1.50
2022-12-23T02:20:37.645Z,1.30
2022-12-23T02:20:48.437Z,1.70
2022-12-23T02:20:59.607Z,1.80
2022-12-23T02:21:10.624Z,2.70
2022-12-23T02:21:21.377Z,2.50
2022-12-23T02:21:32.431Z,2.70
2022-12-23T02:21:43.444Z,1.90
2022-12-23T02:21:54.256Z,2.20
2022-12-23T02:22:04.834Z,1.80
2022-12-23T02:22:15.448Z,1.40
2022-12-23T02:22:26.228Z,0.70
2022-12-23T02:22:37.357Z,2.10
2022-12-23T02:22:48.343Z,2.40
2022-12-23T02:22:59.173Z,2.40
2022-12-23T02:23:10.220Z,1.90
2022-12-23T02:23:21.213Z,2.00
2022-12-23T02:23:32.031Z,2.30
2022-12-23T02:23:43.069Z,1.50
2022-12-23T02:23:54.069Z,1.40
2022-12-23T02:24:04.844Z,1.30
2022-12-23T02:24:15.911Z,1.50
2022-12-23T02:24:26.910Z,1.70
2022-12-23T02:24:37.703Z,1.60
2022-12-23T02:24:48.762Z,1.10
2022-12-23T02:24:59.744Z,1.60
2022-12-23T02:25:10.577Z,1.60